sensor_id;sensor_type;location;lat;lon;timestamp;P1;durP1;ratioP1;P2;durP2;ratioP2
72123;SDS011;59998;37.126;-8.538;2022-08-19T00:04:09;17.6;;;8.0;;
72123;SDS011;59998;37.126;-8.538;2022-08-19T00:08:57;13.1;;;7.7;;
72123;SDS011;59998;37.126;-8.538;2022-08-19T00:13:44;18.2;;;7.7;;
72123;SDS011;59998;37.126;-8.538;2022-08-19T00:18:31;19.3;;;7.8;;
72123;SDS011;59998;37.126;-8.538;2022-08-19T00:23:17;16.1;;;7.7;;
72123;SDS011;59998;37.126;-8.538;2022-08-19T00:28:04;19.7;;;8.0;;
72123;SDS011;59998;37.126;-8.538;2022-08-19T00:32:50;21.5;;;8.4;;
72123;SDS011;59998;37.126;-8.538;2022-08-19T00:37:37;21.9;;;7.7;;
72123;SDS011;59998;37.126;-8.538;2022-08-19T00:42:24;16.5;;;7.1;;
72123;SDS011;59998;37.126;-8.538;2022-08-19T00:47:10;11.3;;;6.5;;
72123;SDS011;59998;37.126;-8.538;2022-08-19T00:51:57;16.0;;;6.5;;
72123;SDS011;59998;37.126;-8.538;2022-08-19T00:56:47;17.7;;;6.9;;
72123;SDS011;59998;37.126;-8.538;2022-08-19T01:01:34;14.5;;;6.8;;
72123;SDS011;59998;37.126;-8.538;2022-08-19T01:06:21;14.8;;;6.5;;
72123;SDS011;59998;37.126;-8.538;2022-08-19T01:11:07;14.6;;;6.8;;
72123;SDS011;59998;37.126;-8.538;2022-08-19T01:15:55;13.4;;;7.2;;
72123;SDS011;59998;37.126;-8.538;2022-08-19T01:20:43;12.9;;;6.7;;
72123;SDS011;59998;37.126;-8.538;2022-08-19T01:25:30;14.1;;;6.2;;
72123;SDS011;59998;37.126;-8.538;2022-08-19T01:30:22;13.1;;;6.2;;
72123;SDS011;59998;37.126;-8.538;2022-08-19T01:35:09;9.8;;;6.5;;
72123;SDS011;59998;37.126;-8.538;2022-08-19T01:39:59;13.7;;;7.0;;
72123;SDS011;59998;37.126;-8.538;2022-08-19T01:44:45;14.9;;;6.8;;
72123;SDS011;59998;37.126;-8.538;2022-08-19T01:49:31;12.7;;;6.0;;
72123;SDS011;59998;37.126;-8.538;2022-08-19T01:54:18;12.9;;;5.9;;
72123;SDS011;59998;37.126;-8.538;2022-08-19T01:59:08;12.6;;;6.0;;
72123;SDS011;59998;37.126;-8.538;2022-08-19T02:03:57;12.6;;;6.1;;
72123;SDS011;59998;37.126;-8.538;2022-08-19T02:08:44;10.9;;;6.1;;
72123;SDS011;59998;37.126;-8.538;2022-08-19T02:13:30;9.4;;;6.0;;
72123;SDS011;59998;37.126;-8.538;2022-08-19T02:18:17;8.9;;;6.0;;
72123;SDS011;59998;37.126;-8.538;2022-08-19T02:23:04;9.9;;;5.9;;
72123;SDS011;59998;37.126;-8.538;2022-08-19T02:27:51;10.9;;;5.8;;
72123;SDS011;59998;37.126;-8.538;2022-08-19T02:32:37;11.3;;;5.9;;
72123;SDS011;59998;37.126;-8.538;2022-08-19T02:37:26;11.0;;;6.1;;
72123;SDS011;59998;37.126;-8.538;2022-08-19T02:42:13;12.9;;;6.2;;
72123;SDS011;59998;37.126;-8.538;2022-08-19T02:46:59;13.0;;;6.1;;
72123;SDS011;59998;37.126;-8.538;2022-08-19T02:51:45;11.4;;;6.0;;
72123;SDS011;59998;37.126;-8.538;2022-08-19T02:56:32;12.1;;;6.1;;
72123;SDS011;59998;37.126;-8.538;2022-08-19T03:01:24;11.9;;;6.1;;
72123;SDS011;59998;37.126;-8.538;2022-08-19T03:06:12;11.1;;;5.9;;
72123;SDS011;59998;37.126;-8.538;2022-08-19T03:11:00;9.1;;;5.7;;
72123;SDS011;59998;37.126;-8.538;2022-08-19T03:15:46;8.1;;;6.2;;
72123;SDS011;59998;37.126;-8.538;2022-08-19T03:20:34;20.6;;;7.4;;
72123;SDS011;59998;37.126;-8.538;2022-08-19T03:25:28;13.9;;;7.0;;
72123;SDS011;59998;37.126;-8.538;2022-08-19T03:30:14;14.0;;;6.4;;
72123;SDS011;59998;37.126;-8.538;2022-08-19T03:35:00;14.9;;;6.4;;
72123;SDS011;59998;37.126;-8.538;2022-08-19T03:39:47;16.3;;;6.1;;
72123;SDS011;59998;37.126;-8.538;2022-08-19T03:44:33;14.7;;;6.3;;
72123;SDS011;59998;37.126;-8.538;2022-08-19T03:49:20;10.7;;;6.4;;
72123;SDS011;59998;37.126;-8.538;2022-08-19T03:54:09;10.3;;;6.5;;
72123;SDS011;59998;37.126;-8.538;2022-08-19T03:58:57;14.2;;;6.9;;
72123;SDS011;59998;37.126;-8.538;2022-08-19T04:03:46;17.4;;;6.8;;
72123;SDS011;59998;37.126;-8.538;2022-08-19T04:08:33;14.6;;;6.2;;
72123;SDS011;59998;37.126;-8.538;2022-08-19T04:13:19;12.3;;;6.0;;
72123;SDS011;59998;37.126;-8.538;2022-08-19T04:18:05;11.8;;;6.1;;
72123;SDS011;59998;37.126;-8.538;2022-08-19T04:22:52;13.8;;;5.9;;
72123;SDS011;59998;37.126;-8.538;2022-08-19T04:27:38;16.3;;;5.9;;
72123;SDS011;59998;37.126;-8.538;2022-08-19T04:32:24;15.0;;;5.9;;
72123;SDS011;59998;37.126;-8.538;2022-08-19T04:37:10;12.7;;;5.9;;
72123;SDS011;59998;37.126;-8.538;2022-08-19T04:41:56;11.6;;;6.1;;
72123;SDS011;59998;37.126;-8.538;2022-08-19T04:46:43;10.6;;;6.0;;
72123;SDS011;59998;37.126;-8.538;2022-08-19T04:51:29;14.3;;;6.0;;
72123;SDS011;59998;37.126;-8.538;2022-08-19T04:56:15;15.1;;;6.3;;
72123;SDS011;59998;37.126;-8.538;2022-08-19T05:01:03;10.8;;;6.1;;
72123;SDS011;59998;37.126;-8.538;2022-08-19T05:05:50;10.5;;;5.6;;
72123;SDS011;59998;37.126;-8.538;2022-08-19T05:10:37;11.5;;;5.9;;
72123;SDS011;59998;37.126;-8.538;2022-08-19T05:15:24;11.2;;;6.6;;
72123;SDS011;59998;37.126;-8.538;2022-08-19T05:20:11;14.0;;;6.9;;
72123;SDS011;59998;37.126;-8.538;2022-08-19T05:24:57;14.8;;;6.8;;
72123;SDS011;59998;37.126;-8.538;2022-08-19T05:29:43;14.7;;;7.0;;
72123;SDS011;59998;37.126;-8.538;2022-08-19T05:34:30;14.3;;;7.3;;
72123;SDS011;59998;37.126;-8.538;2022-08-19T05:39:18;12.6;;;7.2;;
72123;SDS011;59998;37.126;-8.538;2022-08-19T05:44:06;13.1;;;6.9;;
72123;SDS011;59998;37.126;-8.538;2022-08-19T05:48:55;14.2;;;6.7;;
72123;SDS011;59998;37.126;-8.538;2022-08-19T05:53:41;15.3;;;6.6;;
72123;SDS011;59998;37.126;-8.538;2022-08-19T05:58:28;14.5;;;6.8;;
72123;SDS011;59998;37.126;-8.538;2022-08-19T06:03:14;9.7;;;6.5;;
72123;SDS011;59998;37.126;-8.538;2022-08-19T06:08:01;11.3;;;6.2;;
72123;SDS011;59998;37.126;-8.538;2022-08-19T06:12:48;12.4;;;6.2;;
72123;SDS011;59998;37.126;-8.538;2022-08-19T06:17:37;13.5;;;6.3;;
72123;SDS011;59998;37.126;-8.538;2022-08-19T06:22:24;14.8;;;6.4;;
72123;SDS011;59998;37.126;-8.538;2022-08-19T06:27:10;15.1;;;6.6;;
72123;SDS011;59998;37.126;-8.538;2022-08-19T06:31:57;14.8;;;6.4;;
72123;SDS011;59998;37.126;-8.538;2022-08-19T06:36:46;13.1;;;6.1;;
72123;SDS011;59998;37.126;-8.538;2022-08-19T06:41:36;11.1;;;6.1;;
72123;SDS011;59998;37.126;-8.538;2022-08-19T06:46:24;11.4;;;6.1;;
72123;SDS011;59998;37.126;-8.538;2022-08-19T06:51:12;16.2;;;6.4;;
72123;SDS011;59998;37.126;-8.538;2022-08-19T06:55:59;16.5;;;6.3;;
72123;SDS011;59998;37.126;-8.538;2022-08-19T07:00:45;11.3;;;6.1;;
72123;SDS011;59998;37.126;-8.538;2022-08-19T07:05:31;10.2;;;5.9;;
72123;SDS011;59998;37.126;-8.538;2022-08-19T07:10:23;11.9;;;6.0;;
72123;SDS011;59998;37.126;-8.538;2022-08-19T07:15:09;13.5;;;6.3;;
72123;SDS011;59998;37.126;-8.538;2022-08-19T07:19:56;14.6;;;6.2;;
72123;SDS011;59998;37.126;-8.538;2022-08-19T07:24:45;12.8;;;6.1;;
72123;SDS011;59998;37.126;-8.538;2022-08-19T07:29:32;10.9;;;6.0;;
72123;SDS011;59998;37.126;-8.538;2022-08-19T07:34:20;11.2;;;5.9;;
72123;SDS011;59998;37.126;-8.538;2022-08-19T07:39:07;10.8;;;5.9;;
72123;SDS011;59998;37.126;-8.538;2022-08-19T07:43:55;12.5;;;5.7;;
72123;SDS011;59998;37.126;-8.538;2022-08-19T07:48:43;16.6;;;6.0;;
72123;SDS011;59998;37.126;-8.538;2022-08-19T07:53:31;13.6;;;6.1;;
72123;SDS011;59998;37.126;-8.538;2022-08-19T07:58:18;11.3;;;6.1;;
72123;SDS011;59998;37.126;-8.538;2022-08-19T08:03:07;15.2;;;6.2;;
72123;SDS011;59998;37.126;-8.538;2022-08-19T08:07:55;12.8;;;6.0;;
72123;SDS011;59998;37.126;-8.538;2022-08-19T08:12:42;10.0;;;6.2;;
72123;SDS011;59998;37.126;-8.538;2022-08-19T08:17:29;16.1;;;6.9;;
72123;SDS011;59998;37.126;-8.538;2022-08-19T08:22:17;17.0;;;6.5;;
72123;SDS011;59998;37.126;-8.538;2022-08-19T08:27:06;11.3;;;5.6;;
72123;SDS011;59998;37.126;-8.538;2022-08-19T08:31:52;10.7;;;5.9;;
72123;SDS011;59998;37.126;-8.538;2022-08-19T08:36:39;12.4;;;6.2;;
72123;SDS011;59998;37.126;-8.538;2022-08-19T08:41:30;13.0;;;11.2;;
72123;SDS011;59998;37.126;-8.538;2022-08-19T08:46:23;15.1;;;11.6;;
72123;SDS011;59998;37.126;-8.538;2022-08-19T08:51:14;18.9;;;6.9;;
72123;SDS011;59998;37.126;-8.538;2022-08-19T08:56:05;16.1;;;6.4;;
72123;SDS011;59998;37.126;-8.538;2022-08-19T09:00:52;10.4;;;6.4;;
72123;SDS011;59998;37.126;-8.538;2022-08-19T09:05:42;14.2;;;6.4;;
72123;SDS011;59998;37.126;-8.538;2022-08-19T09:10:37;14.9;;;7.1;;
72123;SDS011;59998;37.126;-8.538;2022-08-19T09:15:25;12.2;;;6.8;;
72123;SDS011;59998;37.126;-8.538;2022-08-19T09:20:18;10.5;;;5.8;;
72123;SDS011;59998;37.126;-8.538;2022-08-19T09:25:05;10.1;;;5.9;;
72123;SDS011;59998;37.126;-8.538;2022-08-19T09:29:53;13.1;;;6.2;;
72123;SDS011;59998;37.126;-8.538;2022-08-19T09:34:40;12.8;;;6.1;;
72123;SDS011;59998;37.126;-8.538;2022-08-19T09:39:26;9.5;;;6.1;;
72123;SDS011;59998;37.126;-8.538;2022-08-19T09:44:15;9.3;;;6.0;;
72123;SDS011;59998;37.126;-8.538;2022-08-19T09:49:02;10.9;;;5.9;;
72123;SDS011;59998;37.126;-8.538;2022-08-19T09:53:48;11.8;;;6.1;;
72123;SDS011;59998;37.126;-8.538;2022-08-19T09:58:36;10.9;;;6.4;;
72123;SDS011;59998;37.126;-8.538;2022-08-19T10:03:22;10.6;;;6.8;;
72123;SDS011;59998;37.126;-8.538;2022-08-19T10:08:09;10.7;;;6.6;;
72123;SDS011;59998;37.126;-8.538;2022-08-19T10:12:56;12.1;;;6.8;;
72123;SDS011;59998;37.126;-8.538;2022-08-19T10:17:42;11.3;;;6.7;;
72123;SDS011;59998;37.126;-8.538;2022-08-19T10:22:29;10.4;;;6.4;;
72123;SDS011;59998;37.126;-8.538;2022-08-19T10:27:16;10.8;;;6.8;;
72123;SDS011;59998;37.126;-8.538;2022-08-19T10:32:03;10.5;;;6.6;;
72123;SDS011;59998;37.126;-8.538;2022-08-19T10:36:50;10.2;;;6.3;;
72123;SDS011;59998;37.126;-8.538;2022-08-19T10:41:37;10.1;;;6.4;;
72123;SDS011;59998;37.126;-8.538;2022-08-19T10:46:25;10.7;;;6.7;;
72123;SDS011;59998;37.126;-8.538;2022-08-19T10:51:13;9.9;;;6.7;;
72123;SDS011;59998;37.126;-8.538;2022-08-19T10:55:59;15.1;;;6.6;;
72123;SDS011;59998;37.126;-8.538;2022-08-19T11:00:50;19.2;;;6.8;;
72123;SDS011;59998;37.126;-8.538;2022-08-19T11:05:37;16.2;;;6.9;;
72123;SDS011;59998;37.126;-8.538;2022-08-19T11:10:24;12.5;;;6.8;;
72123;SDS011;59998;37.126;-8.538;2022-08-19T11:15:10;14.1;;;6.9;;
72123;SDS011;59998;37.126;-8.538;2022-08-19T11:19:57;14.6;;;6.9;;
72123;SDS011;59998;37.126;-8.538;2022-08-19T11:24:44;10.4;;;6.8;;
72123;SDS011;59998;37.126;-8.538;2022-08-19T11:29:31;9.6;;;6.9;;
72123;SDS011;59998;37.126;-8.538;2022-08-19T11:34:19;9.6;;;6.8;;
72123;SDS011;59998;37.126;-8.538;2022-08-19T11:39:07;11.2;;;6.9;;
72123;SDS011;59998;37.126;-8.538;2022-08-19T11:43:54;11.5;;;7.0;;
72123;SDS011;59998;37.126;-8.538;2022-08-19T11:48:40;11.6;;;6.8;;
72123;SDS011;59998;37.126;-8.538;2022-08-19T11:53:29;13.9;;;7.4;;
72123;SDS011;59998;37.126;-8.538;2022-08-19T11:58:16;13.0;;;7.6;;
72123;SDS011;59998;37.126;-8.538;2022-08-19T12:03:03;10.9;;;6.8;;
72123;SDS011;59998;37.126;-8.538;2022-08-19T12:07:49;16.4;;;7.0;;
72123;SDS011;59998;37.126;-8.538;2022-08-19T12:12:36;17.2;;;7.5;;
72123;SDS011;59998;37.126;-8.538;2022-08-19T12:17:22;12.5;;;7.3;;
72123;SDS011;59998;37.126;-8.538;2022-08-19T12:22:08;12.0;;;7.1;;
72123;SDS011;59998;37.126;-8.538;2022-08-19T12:26:55;11.1;;;7.3;;
72123;SDS011;59998;37.126;-8.538;2022-08-19T12:31:41;11.2;;;7.3;;
72123;SDS011;59998;37.126;-8.538;2022-08-19T12:36:28;10.8;;;7.1;;
72123;SDS011;59998;37.126;-8.538;2022-08-19T12:41:14;12.3;;;7.5;;
72123;SDS011;59998;37.126;-8.538;2022-08-19T12:46:02;12.2;;;7.8;;
72123;SDS011;59998;37.126;-8.538;2022-08-19T12:50:50;11.2;;;7.7;;
72123;SDS011;59998;37.126;-8.538;2022-08-19T12:55:36;13.8;;;7.4;;
72123;SDS011;59998;37.126;-8.538;2022-08-19T13:00:25;12.9;;;7.2;;
72123;SDS011;59998;37.126;-8.538;2022-08-19T13:05:13;9.9;;;7.0;;
72123;SDS011;59998;37.126;-8.538;2022-08-19T13:10:01;10.2;;;7.4;;
72123;SDS011;59998;37.126;-8.538;2022-08-19T13:14:47;13.9;;;8.0;;
72123;SDS011;59998;37.126;-8.538;2022-08-19T13:19:35;15.6;;;7.8;;
72123;SDS011;59998;37.126;-8.538;2022-08-19T13:24:22;14.2;;;7.3;;
72123;SDS011;59998;37.126;-8.538;2022-08-19T13:29:08;12.9;;;7.2;;
72123;SDS011;59998;37.126;-8.538;2022-08-19T13:33:54;12.6;;;7.0;;
72123;SDS011;59998;37.126;-8.538;2022-08-19T13:38:40;12.4;;;6.9;;
72123;SDS011;59998;37.126;-8.538;2022-08-19T13:43:27;13.4;;;7.2;;
72123;SDS011;59998;37.126;-8.538;2022-08-19T13:48:13;13.3;;;7.2;;
72123;SDS011;59998;37.126;-8.538;2022-08-19T13:53:02;11.1;;;7.0;;
72123;SDS011;59998;37.126;-8.538;2022-08-19T13:57:51;11.4;;;7.0;;
72123;SDS011;59998;37.126;-8.538;2022-08-19T14:02:37;11.3;;;6.9;;
72123;SDS011;59998;37.126;-8.538;2022-08-19T14:07:25;11.0;;;6.9;;
72123;SDS011;59998;37.126;-8.538;2022-08-19T14:12:11;10.8;;;6.9;;
72123;SDS011;59998;37.126;-8.538;2022-08-19T14:16:58;9.7;;;6.8;;
72123;SDS011;59998;37.126;-8.538;2022-08-19T14:21:44;13.0;;;7.3;;
72123;SDS011;59998;37.126;-8.538;2022-08-19T14:26:33;14.5;;;7.2;;
72123;SDS011;59998;37.126;-8.538;2022-08-19T14:31:19;12.1;;;6.9;;
72123;SDS011;59998;37.126;-8.538;2022-08-19T14:36:06;10.9;;;7.0;;
72123;SDS011;59998;37.126;-8.538;2022-08-19T14:40:52;12.0;;;7.1;;
72123;SDS011;59998;37.126;-8.538;2022-08-19T14:45:39;12.6;;;7.1;;
72123;SDS011;59998;37.126;-8.538;2022-08-19T14:50:26;11.1;;;6.6;;
72123;SDS011;59998;37.126;-8.538;2022-08-19T14:55:15;14.1;;;6.5;;
72123;SDS011;59998;37.126;-8.538;2022-08-19T15:00:02;13.6;;;6.4;;
72123;SDS011;59998;37.126;-8.538;2022-08-19T15:04:49;12.5;;;6.4;;
72123;SDS011;59998;37.126;-8.538;2022-08-19T15:09:36;12.3;;;6.8;;
72123;SDS011;59998;37.126;-8.538;2022-08-19T15:14:22;11.0;;;6.7;;
72123;SDS011;59998;37.126;-8.538;2022-08-19T15:19:08;12.9;;;6.6;;
72123;SDS011;59998;37.126;-8.538;2022-08-19T15:23:56;13.8;;;6.7;;
72123;SDS011;59998;37.126;-8.538;2022-08-19T15:28:43;15.3;;;6.8;;
72123;SDS011;59998;37.126;-8.538;2022-08-19T15:33:30;16.3;;;7.2;;
72123;SDS011;59998;37.126;-8.538;2022-08-19T15:38:17;12.9;;;7.0;;
72123;SDS011;59998;37.126;-8.538;2022-08-19T15:43:06;10.4;;;6.6;;
72123;SDS011;59998;37.126;-8.538;2022-08-19T15:47:52;12.3;;;6.9;;
72123;SDS011;59998;37.126;-8.538;2022-08-19T15:52:45;13.7;;;6.9;;
72123;SDS011;59998;37.126;-8.538;2022-08-19T15:57:33;12.0;;;6.9;;
72123;SDS011;59998;37.126;-8.538;2022-08-19T16:02:20;11.3;;;7.2;;
72123;SDS011;59998;37.126;-8.538;2022-08-19T16:07:08;13.5;;;7.1;;
72123;SDS011;59998;37.126;-8.538;2022-08-19T16:11:55;12.8;;;6.9;;
72123;SDS011;59998;37.126;-8.538;2022-08-19T16:16:43;12.8;;;7.0;;
72123;SDS011;59998;37.126;-8.538;2022-08-19T16:21:32;11.8;;;6.9;;
72123;SDS011;59998;37.126;-8.538;2022-08-19T16:26:19;12.8;;;6.7;;
72123;SDS011;59998;37.126;-8.538;2022-08-19T16:31:05;13.6;;;6.8;;
72123;SDS011;59998;37.126;-8.538;2022-08-19T16:35:51;11.6;;;6.8;;
72123;SDS011;59998;37.126;-8.538;2022-08-19T16:40:38;11.1;;;7.1;;
72123;SDS011;59998;37.126;-8.538;2022-08-19T16:45:26;10.2;;;6.8;;
72123;SDS011;59998;37.126;-8.538;2022-08-19T16:50:13;10.9;;;6.6;;
72123;SDS011;59998;37.126;-8.538;2022-08-19T16:54:59;10.6;;;6.8;;
72123;SDS011;59998;37.126;-8.538;2022-08-19T16:59:49;10.3;;;6.8;;
72123;SDS011;59998;37.126;-8.538;2022-08-19T17:04:36;10.8;;;6.8;;
72123;SDS011;59998;37.126;-8.538;2022-08-19T17:09:22;13.2;;;7.1;;
72123;SDS011;59998;37.126;-8.538;2022-08-19T17:14:09;13.8;;;7.2;;
72123;SDS011;59998;37.126;-8.538;2022-08-19T17:18:56;11.4;;;7.1;;
72123;SDS011;59998;37.126;-8.538;2022-08-19T17:23:47;10.6;;;7.1;;
72123;SDS011;59998;37.126;-8.538;2022-08-19T17:28:34;12.1;;;7.4;;
72123;SDS011;59998;37.126;-8.538;2022-08-19T17:33:20;14.3;;;7.6;;
72123;SDS011;59998;37.126;-8.538;2022-08-19T17:38:07;12.9;;;7.3;;
72123;SDS011;59998;37.126;-8.538;2022-08-19T17:42:55;12.3;;;7.3;;
72123;SDS011;59998;37.126;-8.538;2022-08-19T17:47:41;16.0;;;7.5;;
72123;SDS011;59998;37.126;-8.538;2022-08-19T17:52:30;17.5;;;7.5;;
72123;SDS011;59998;37.126;-8.538;2022-08-19T17:57:16;15.8;;;7.3;;
72123;SDS011;59998;37.126;-8.538;2022-08-19T18:02:03;13.0;;;7.1;;
72123;SDS011;59998;37.126;-8.538;2022-08-19T18:06:50;10.9;;;7.2;;
72123;SDS011;59998;37.126;-8.538;2022-08-19T18:11:36;11.6;;;7.5;;
72123;SDS011;59998;37.126;-8.538;2022-08-19T18:16:23;12.4;;;8.2;;
72123;SDS011;59998;37.126;-8.538;2022-08-19T18:21:09;13.7;;;8.0;;
72123;SDS011;59998;37.126;-8.538;2022-08-19T18:25:58;13.0;;;7.5;;
72123;SDS011;59998;37.126;-8.538;2022-08-19T18:30:44;13.7;;;7.9;;
72123;SDS011;59998;37.126;-8.538;2022-08-19T18:35:31;14.6;;;8.0;;
72123;SDS011;59998;37.126;-8.538;2022-08-19T18:40:18;13.2;;;7.5;;
72123;SDS011;59998;37.126;-8.538;2022-08-19T18:45:06;13.0;;;7.3;;
72123;SDS011;59998;37.126;-8.538;2022-08-19T18:49:54;12.9;;;7.1;;
72123;SDS011;59998;37.126;-8.538;2022-08-19T18:54:40;13.4;;;7.1;;
72123;SDS011;59998;37.126;-8.538;2022-08-19T18:59:27;19.1;;;7.3;;
72123;SDS011;59998;37.126;-8.538;2022-08-19T19:04:13;20.3;;;7.3;;
72123;SDS011;59998;37.126;-8.538;2022-08-19T19:08:59;18.7;;;7.3;;
72123;SDS011;59998;37.126;-8.538;2022-08-19T19:13:45;18.7;;;7.6;;
72123;SDS011;59998;37.126;-8.538;2022-08-19T19:18:32;14.5;;;7.7;;
72123;SDS011;59998;37.126;-8.538;2022-08-19T19:23:18;14.4;;;7.8;;
72123;SDS011;59998;37.126;-8.538;2022-08-19T19:28:04;14.4;;;7.7;;
72123;SDS011;59998;37.126;-8.538;2022-08-19T19:32:51;13.1;;;7.2;;
72123;SDS011;59998;37.126;-8.538;2022-08-19T19:37:38;13.0;;;7.1;;
72123;SDS011;59998;37.126;-8.538;2022-08-19T19:42:24;11.2;;;6.5;;
72123;SDS011;59998;37.126;-8.538;2022-08-19T19:47:11;13.2;;;7.4;;
72123;SDS011;59998;37.126;-8.538;2022-08-19T19:51:59;13.6;;;8.0;;
72123;SDS011;59998;37.126;-8.538;2022-08-19T19:56:48;16.1;;;7.6;;
72123;SDS011;59998;37.126;-8.538;2022-08-19T20:01:34;16.5;;;7.4;;
72123;SDS011;59998;37.126;-8.538;2022-08-19T20:06:23;12.0;;;6.7;;
72123;SDS011;59998;37.126;-8.538;2022-08-19T20:11:09;12.1;;;6.8;;
72123;SDS011;59998;37.126;-8.538;2022-08-19T20:15:55;14.2;;;6.8;;
72123;SDS011;59998;37.126;-8.538;2022-08-19T20:20:42;14.6;;;6.6;;
72123;SDS011;59998;37.126;-8.538;2022-08-19T20:25:28;13.2;;;6.5;;
72123;SDS011;59998;37.126;-8.538;2022-08-19T20:30:16;13.2;;;6.9;;
72123;SDS011;59998;37.126;-8.538;2022-08-19T20:35:04;16.0;;;7.2;;
72123;SDS011;59998;37.126;-8.538;2022-08-19T20:39:51;15.1;;;7.1;;
72123;SDS011;59998;37.126;-8.538;2022-08-19T20:44:37;12.7;;;7.1;;
72123;SDS011;59998;37.126;-8.538;2022-08-19T20:49:23;11.3;;;6.8;;
72123;SDS011;59998;37.126;-8.538;2022-08-19T20:54:09;9.2;;;6.6;;
72123;SDS011;59998;37.126;-8.538;2022-08-19T20:58:56;10.6;;;7.0;;
72123;SDS011;59998;37.126;-8.538;2022-08-19T21:03:42;11.1;;;7.2;;
72123;SDS011;59998;37.126;-8.538;2022-08-19T21:08:28;10.2;;;6.8;;
72123;SDS011;59998;37.126;-8.538;2022-08-19T21:13:18;10.4;;;6.4;;
72123;SDS011;59998;37.126;-8.538;2022-08-19T21:18:05;10.6;;;6.8;;
72123;SDS011;59998;37.126;-8.538;2022-08-19T21:22:52;10.5;;;6.8;;
72123;SDS011;59998;37.126;-8.538;2022-08-19T21:27:38;12.6;;;6.9;;
72123;SDS011;59998;37.126;-8.538;2022-08-19T21:32:27;12.7;;;6.7;;
72123;SDS011;59998;37.126;-8.538;2022-08-19T21:37:14;12.8;;;6.6;;
72123;SDS011;59998;37.126;-8.538;2022-08-19T21:42:00;14.8;;;6.9;;
72123;SDS011;59998;37.126;-8.538;2022-08-19T21:46:46;12.9;;;6.8;;
72123;SDS011;59998;37.126;-8.538;2022-08-19T21:51:33;11.4;;;6.9;;
72123;SDS011;59998;37.126;-8.538;2022-08-19T21:56:20;13.3;;;7.4;;
72123;SDS011;59998;37.126;-8.538;2022-08-19T22:01:06;15.5;;;7.8;;
72123;SDS011;59998;37.126;-8.538;2022-08-19T22:05:53;17.3;;;7.8;;
72123;SDS011;59998;37.126;-8.538;2022-08-19T22:10:39;14.6;;;7.4;;
72123;SDS011;59998;37.126;-8.538;2022-08-19T22:15:28;10.8;;;6.9;;
72123;SDS011;59998;37.126;-8.538;2022-08-19T22:20:19;10.7;;;6.9;;
72123;SDS011;59998;37.126;-8.538;2022-08-19T22:25:08;11.9;;;7.1;;
72123;SDS011;59998;37.126;-8.538;2022-08-19T22:29:58;11.8;;;6.7;;
72123;SDS011;59998;37.126;-8.538;2022-08-19T22:34:44;12.9;;;7.1;;
72123;SDS011;59998;37.126;-8.538;2022-08-19T22:39:30;14.9;;;7.4;;
72123;SDS011;59998;37.126;-8.538;2022-08-19T22:44:17;14.1;;;7.2;;
72123;SDS011;59998;37.126;-8.538;2022-08-19T22:49:03;14.8;;;7.1;;
72123;SDS011;59998;37.126;-8.538;2022-08-19T22:53:50;18.7;;;7.1;;
72123;SDS011;59998;37.126;-8.538;2022-08-19T22:58:36;19.7;;;7.4;;
72123;SDS011;59998;37.126;-8.538;2022-08-19T23:03:23;16.0;;;7.3;;
72123;SDS011;59998;37.126;-8.538;2022-08-19T23:08:10;15.1;;;7.2;;
72123;SDS011;59998;37.126;-8.538;2022-08-19T23:12:57;13.9;;;7.1;;
72123;SDS011;59998;37.126;-8.538;2022-08-19T23:17:44;12.4;;;7.5;;
72123;SDS011;59998;37.126;-8.538;2022-08-19T23:22:30;14.6;;;7.6;;
72123;SDS011;59998;37.126;-8.538;2022-08-19T23:27:17;15.2;;;7.4;;
72123;SDS011;59998;37.126;-8.538;2022-08-19T23:32:03;19.5;;;7.3;;
72123;SDS011;59998;37.126;-8.538;2022-08-19T23:36:49;21.4;;;7.6;;
72123;SDS011;59998;37.126;-8.538;2022-08-19T23:41:36;21.3;;;8.1;;
72123;SDS011;59998;37.126;-8.538;2022-08-19T23:46:22;24.6;;;7.9;;
72123;SDS011;59998;37.126;-8.538;2022-08-19T23:51:09;21.9;;;8.0;;
72123;SDS011;59998;37.126;-8.538;2022-08-19T23:55:58;15.7;;;8.0;;
